createdAt,value
2016-12-01T00:00:24.038Z,0
2016-12-01T00:01:04.503Z,0
2016-12-01T00:01:44.996Z,0
2016-12-01T00:02:25.529Z,0
2016-12-01T00:03:06.046Z,0
2016-12-01T00:03:46.533Z,0
2016-12-01T00:04:27.014Z,0
2016-12-01T00:05:07.501Z,0
2016-12-01T00:05:48.021Z,0
2016-12-01T00:06:28.526Z,0
2016-12-01T00:07:09.050Z,0
2016-12-01T00:07:49.509Z,0
2016-12-01T00:08:29.980Z,0
2016-12-01T00:09:10.451Z,0
2016-12-01T00:09:50.949Z,0
2016-12-01T00:10:31.438Z,0
2016-12-01T00:11:11.919Z,0
2016-12-01T00:11:52.400Z,0
2016-12-01T00:12:32.919Z,0
2016-12-01T00:13:13.442Z,0
2016-12-01T00:13:53.941Z,0
2016-12-01T00:14:34.427Z,0
2016-12-01T00:15:14.900Z,0
2016-12-01T00:15:55.392Z,0
2016-12-01T00:16:35.871Z,0
2016-12-01T00:17:16.365Z,0
2016-12-01T00:17:56.884Z,0
2016-12-01T00:18:37.379Z,0
2016-12-01T00:19:17.889Z,0
2016-12-01T00:19:58.359Z,0
2016-12-01T00:20:38.827Z,0
2016-12-01T00:21:19.309Z,0
2016-12-01T00:21:59.803Z,0
2016-12-01T00:22:40.322Z,0
2016-12-01T00:23:20.789Z,0
2016-12-01T00:24:01.272Z,0
2016-12-01T00:24:41.818Z,0
2016-12-01T00:25:22.313Z,0
2016-12-01T00:26:02.800Z,0
2016-12-01T00:26:43.286Z,0
2016-12-01T00:27:23.779Z,0
2016-12-01T00:28:04.312Z,0
2016-12-01T00:28:44.787Z,0
2016-12-01T00:29:25.284Z,0
2016-12-01T00:30:05.781Z,0
2016-12-01T00:30:46.306Z,0
2016-12-01T00:31:26.757Z,0
2016-12-01T00:32:07.251Z,0
2016-12-01T00:32:47.756Z,0
2016-12-01T00:33:28.252Z,0
2016-12-01T00:34:08.717Z,0
2016-12-01T00:34:49.208Z,0
2016-12-01T00:35:29.750Z,0
2016-12-01T00:36:10.253Z,0
2016-12-01T00:36:50.750Z,0
2016-12-01T00:37:31.209Z,0
2016-12-01T00:38:11.726Z,0
2016-12-01T00:38:52.211Z,0
2016-12-01T00:39:32.694Z,0
2016-12-01T00:40:13.139Z,0
2016-12-01T00:40:53.634Z,0
2016-12-01T00:41:34.125Z,0
2016-12-01T00:42:14.631Z,0
2016-12-01T00:42:55.075Z,0
2016-12-01T00:43:35.559Z,0
2016-12-01T00:44:16.055Z,0
2016-12-01T00:44:56.547Z,0
2016-12-01T00:45:37.039Z,0
2016-12-01T00:46:17.514Z,0
2016-12-01T00:46:58.014Z,0
2016-12-01T00:47:38.555Z,0
2016-12-01T00:48:19.073Z,0
2016-12-01T00:48:59.524Z,0
2016-12-01T00:49:40.045Z,0
2016-12-01T00:50:20.515Z,0
2016-12-01T00:51:01.010Z,0
2016-12-01T00:51:41.475Z,0
2016-12-01T00:52:21.967Z,0
2016-12-01T00:53:02.487Z,0
2016-12-01T00:53:42.951Z,0
2016-12-01T00:54:23.436Z,0
2016-12-01T00:55:03.937Z,0
2016-12-01T00:55:44.366Z,0
2016-12-01T00:56:24.841Z,0
2016-12-01T00:57:05.353Z,0
2016-12-01T00:57:45.856Z,0
2016-12-01T00:58:26.375Z,0
2016-12-01T00:59:06.827Z,0
2016-12-01T00:59:47.353Z,0
2016-12-01T01:00:27.811Z,0
2016-12-01T01:01:08.304Z,0
2016-12-01T01:01:48.805Z,0
2016-12-01T01:02:29.247Z,0
2016-12-01T01:03:09.744Z,0
2016-12-01T01:03:50.238Z,0
2016-12-01T01:04:30.712Z,0
2016-12-01T01:05:11.230Z,0
2016-12-01T01:05:51.740Z,0
2016-12-01T01:06:32.221Z,0
2016-12-01T01:07:12.692Z,0
2016-12-01T01:07:53.207Z,0
2016-12-01T01:08:33.680Z,0
2016-12-01T01:09:14.162Z,0
2016-12-01T01:09:54.629Z,0
2016-12-01T01:10:35.097Z,0
2016-12-01T01:11:15.595Z,0
2016-12-01T01:11:56.051Z,0
2016-12-01T01:12:36.550Z,0
2016-12-01T01:13:17.014Z,0
2016-12-01T01:13:57.517Z,0
2016-12-01T01:14:37.996Z,0
2016-12-01T01:15:18.479Z,0
2016-12-01T01:15:58.967Z,0
2016-12-01T01:16:39.452Z,0
2016-12-01T01:17:19.922Z,0
2016-12-01T01:18:00.395Z,0
2016-12-01T01:18:40.892Z,0
2016-12-01T01:19:21.386Z,0
2016-12-01T01:20:01.871Z,0
2016-12-01T01:20:42.361Z,0
2016-12-01T01:21:22.851Z,0
2016-12-01T01:22:03.326Z,0
2016-12-01T01:22:43.815Z,0
2016-12-01T01:23:24.312Z,0
2016-12-01T01:24:04.803Z,0
2016-12-01T01:24:45.300Z,0
2016-12-01T01:25:25.782Z,0
2016-12-01T01:26:06.264Z,0
2016-12-01T01:26:46.750Z,0
2016-12-01T01:27:27.225Z,0
2016-12-01T01:28:07.728Z,0
2016-12-01T01:28:48.225Z,0
2016-12-01T01:29:28.702Z,0
2016-12-01T01:30:09.183Z,0
2016-12-01T01:30:49.696Z,0
2016-12-01T01:31:30.166Z,0
2016-12-01T01:32:10.653Z,0
2016-12-01T01:32:51.124Z,0
2016-12-01T01:33:31.583Z,0
2016-12-01T01:34:12.063Z,0
2016-12-01T01:34:52.598Z,0
2016-12-01T01:35:33.069Z,0
2016-12-01T01:36:13.560Z,0
2016-12-01T01:36:54.063Z,0
2016-12-01T01:37:34.544Z,0
2016-12-01T01:38:15.030Z,0
2016-12-01T01:38:55.475Z,0
2016-12-01T01:39:35.979Z,0
2016-12-01T01:40:16.473Z,0
2016-12-01T01:40:56.999Z,0
2016-12-01T01:41:37.515Z,0
2016-12-01T01:42:17.978Z,0
2016-12-01T01:42:58.449Z,0
2016-12-01T01:43:38.931Z,0
2016-12-01T01:44:19.458Z,0
2016-12-01T01:44:59.899Z,0
2016-12-01T01:45:40.390Z,0
2016-12-01T01:46:20.873Z,0
2016-12-01T01:47:01.399Z,0
2016-12-01T01:47:41.889Z,0
2016-12-01T01:48:22.360Z,0
2016-12-01T01:49:02.848Z,0
2016-12-01T01:49:43.360Z,0
2016-12-01T01:50:23.832Z,0
2016-12-01T01:51:04.310Z,0
2016-12-01T01:51:44.808Z,0
2016-12-01T01:52:25.266Z,0
2016-12-01T01:53:05.756Z,0
2016-12-01T01:53:46.243Z,0
2016-12-01T01:54:26.752Z,0
2016-12-01T01:55:07.247Z,0
2016-12-01T01:55:47.716Z,0
2016-12-01T01:56:28.218Z,0
2016-12-01T01:57:08.699Z,0
2016-12-01T01:57:49.208Z,0
2016-12-01T01:58:29.687Z,0
2016-12-01T01:59:10.169Z,0
2016-12-01T01:59:50.645Z,0
2016-12-01T02:00:31.163Z,0
2016-12-01T02:01:11.636Z,0
2016-12-01T02:01:52.103Z,0
2016-12-01T02:02:32.584Z,0
2016-12-01T02:03:13.100Z,0
2016-12-01T02:03:53.593Z,0
2016-12-01T02:04:34.050Z,0
2016-12-01T02:05:14.607Z,0
2016-12-01T02:05:55.071Z,0
2016-12-01T02:06:35.574Z,0
2016-12-01T02:07:16.061Z,0
2016-12-01T02:07:56.520Z,0
2016-12-01T02:08:37.001Z,0
2016-12-01T02:09:17.489Z,0
2016-12-01T02:09:57.973Z,0
2016-12-01T02:10:38.418Z,0
2016-12-01T02:11:18.914Z,0
2016-12-01T02:11:59.408Z,0
2016-12-01T02:12:39.906Z,0
2016-12-01T02:13:20.411Z,0
2016-12-01T02:14:00.880Z,0
2016-12-01T02:14:41.369Z,0
2016-12-01T02:15:21.866Z,0
2016-12-01T02:16:02.325Z,0
2016-12-01T02:16:42.832Z,0
2016-12-01T02:17:23.338Z,0
2016-12-01T02:18:03.818Z,0
2016-12-01T02:18:44.285Z,0
2016-12-01T02:19:24.779Z,0
2016-12-01T02:20:05.224Z,0
2016-12-01T02:20:45.722Z,0
2016-12-01T02:21:26.239Z,0
2016-12-01T02:22:06.711Z,0
2016-12-01T02:22:47.202Z,0
2016-12-01T02:23:27.723Z,0
2016-12-01T02:24:08.228Z,0
2016-12-01T02:24:48.743Z,0
2016-12-01T02:25:29.212Z,0
2016-12-01T02:26:09.712Z,0
2016-12-01T02:26:50.201Z,0
2016-12-01T02:27:30.682Z,0
2016-12-01T02:28:11.146Z,0
2016-12-01T02:28:51.615Z,0
2016-12-01T02:29:32.100Z,0
2016-12-01T02:30:12.566Z,0
2016-12-01T02:30:53.049Z,0
2016-12-01T02:31:33.526Z,0
2016-12-01T02:32:13.997Z,0
2016-12-01T02:32:54.520Z,0
2016-12-01T02:33:35.008Z,0
2016-12-01T02:34:15.534Z,0
2016-12-01T02:34:56.003Z,0
2016-12-01T02:35:36.495Z,0
2016-12-01T02:36:16.977Z,0
2016-12-01T02:36:57.518Z,0
2016-12-01T02:37:37.996Z,0
2016-12-01T02:38:18.444Z,0
2016-12-01T02:38:58.982Z,0
2016-12-01T02:39:39.524Z,0
2016-12-01T02:40:20.017Z,0
2016-12-01T02:41:00.516Z,0
2016-12-01T02:41:41.003Z,0
2016-12-01T02:42:21.641Z,0
2016-12-01T02:43:02.158Z,0
2016-12-01T02:43:42.636Z,0
2016-12-01T02:44:23.117Z,0
2016-12-01T02:45:03.622Z,0
2016-12-01T02:45:44.082Z,0
2016-12-01T02:46:24.575Z,0
2016-12-01T02:47:05.061Z,0
2016-12-01T02:47:45.536Z,0
2016-12-01T02:48:26.004Z,0
2016-12-01T02:49:06.477Z,0
2016-12-01T02:49:46.987Z,0
2016-12-01T02:50:27.498Z,0
2016-12-01T02:51:07.981Z,0
2016-12-01T02:51:48.424Z,0
2016-12-01T02:52:28.920Z,0
2016-12-01T02:53:09.404Z,0
2016-12-01T02:53:49.866Z,0
2016-12-01T02:54:30.368Z,0
2016-12-01T02:55:10.868Z,0
2016-12-01T02:55:51.353Z,0
2016-12-01T02:56:31.885Z,0
2016-12-01T02:57:12.411Z,0
2016-12-01T02:57:52.908Z,0
2016-12-01T02:58:33.381Z,0
2016-12-01T02:59:13.873Z,0
2016-12-01T02:59:54.337Z,0
2016-12-01T03:00:34.812Z,0
2016-12-01T03:01:15.296Z,0
2016-12-01T03:01:55.780Z,0
2016-12-01T03:02:36.256Z,0
2016-12-01T03:03:16.767Z,0
2016-12-01T03:03:57.224Z,0
2016-12-01T03:04:37.687Z,0
2016-12-01T03:05:18.188Z,0
2016-12-01T03:05:58.674Z,0
2016-12-01T03:06:39.139Z,0
2016-12-01T03:07:19.596Z,0
2016-12-01T03:08:00.098Z,0
2016-12-01T03:08:40.565Z,0
2016-12-01T03:09:21.077Z,0
2016-12-01T03:10:01.633Z,0
2016-12-01T03:10:42.100Z,0
2016-12-01T03:11:22.626Z,0
2016-12-01T03:12:03.075Z,0
2016-12-01T03:12:43.544Z,0
2016-12-01T03:13:24.024Z,0
2016-12-01T03:14:04.504Z,0
2016-12-01T03:14:45.005Z,0
2016-12-01T03:15:25.467Z,0
2016-12-01T03:16:05.958Z,0
2016-12-01T03:16:46.434Z,0
2016-12-01T03:17:26.931Z,0
2016-12-01T03:18:07.430Z,0
2016-12-01T03:18:47.908Z,0
2016-12-01T03:19:28.401Z,0
2016-12-01T03:20:08.876Z,0
2016-12-01T03:20:49.338Z,0
2016-12-01T03:21:29.907Z,0
2016-12-01T03:22:10.359Z,0
2016-12-01T03:22:50.818Z,0
2016-12-01T03:23:31.313Z,0
2016-12-01T03:24:11.841Z,0
2016-12-01T03:24:52.272Z,0
2016-12-01T03:25:32.769Z,0
2016-12-01T03:26:13.241Z,0
2016-12-01T03:26:53.734Z,0
2016-12-01T03:27:34.244Z,0
2016-12-01T03:28:14.747Z,0
2016-12-01T03:28:55.222Z,0
2016-12-01T03:29:35.722Z,0
2016-12-01T03:30:16.222Z,0
2016-12-01T03:30:56.689Z,0
2016-12-01T03:31:37.166Z,0
2016-12-01T03:32:17.640Z,0
2016-12-01T03:32:58.112Z,0
2016-12-01T03:33:38.598Z,0
2016-12-01T03:34:19.096Z,0
2016-12-01T03:34:59.578Z,0
2016-12-01T03:35:40.047Z,0
2016-12-01T03:36:20.538Z,0
2016-12-01T03:37:01.055Z,0
2016-12-01T03:37:41.509Z,0
2016-12-01T03:38:21.974Z,0
2016-12-01T03:39:02.461Z,0
2016-12-01T03:39:42.976Z,0
2016-12-01T03:40:23.448Z,0
2016-12-01T03:41:03.891Z,0
2016-12-01T03:41:44.366Z,0
2016-12-01T03:42:24.875Z,0
2016-12-01T03:43:05.371Z,0
2016-12-01T03:43:45.885Z,0
2016-12-01T03:44:26.425Z,0
2016-12-01T03:45:06.873Z,0
2016-12-01T03:45:47.374Z,0
2016-12-01T03:46:27.833Z,0
2016-12-01T03:47:08.336Z,0
2016-12-01T03:47:48.825Z,0
2016-12-01T03:48:29.327Z,0
2016-12-01T03:49:09.803Z,0
2016-12-01T03:49:50.262Z,0
2016-12-01T03:50:30.785Z,0
2016-12-01T03:51:11.253Z,0
2016-12-01T03:51:51.769Z,0
2016-12-01T03:52:32.251Z,0
2016-12-01T03:53:12.753Z,0
2016-12-01T03:53:53.258Z,0
2016-12-01T03:54:33.736Z,0
2016-12-01T03:55:14.234Z,0
2016-12-01T03:55:54.754Z,0
2016-12-01T03:56:35.177Z,0
2016-12-01T03:57:15.668Z,0
2016-12-01T03:57:56.133Z,0
2016-12-01T03:58:36.653Z,0
2016-12-01T03:59:17.145Z,0
2016-12-01T03:59:57.595Z,0
2016-12-01T04:00:38.091Z,0
2016-12-01T04:01:18.576Z,0
2016-12-01T04:01:59.042Z,0
2016-12-01T04:02:39.517Z,0
2016-12-01T04:03:19.999Z,0
2016-12-01T04:04:00.460Z,0
2016-12-01T04:04:40.936Z,0
2016-12-01T04:05:21.439Z,0
2016-12-01T04:06:01.919Z,0
2016-12-01T04:06:42.391Z,0
2016-12-01T04:07:22.875Z,0
2016-12-01T04:08:03.352Z,0
2016-12-01T04:08:43.870Z,0
2016-12-01T04:09:24.336Z,0
2016-12-01T04:10:04.821Z,0
2016-12-01T04:10:45.335Z,0
2016-12-01T04:11:25.864Z,0
2016-12-01T04:12:06.332Z,0
2016-12-01T04:12:46.799Z,0
2016-12-01T04:13:27.307Z,0
2016-12-01T04:14:07.804Z,0
2016-12-01T04:14:48.291Z,0
2016-12-01T04:15:28.801Z,0
2016-12-01T04:16:09.288Z,0
2016-12-01T04:16:49.752Z,0
2016-12-01T04:17:30.231Z,0
2016-12-01T04:18:10.720Z,0
2016-12-01T04:18:51.189Z,0
2016-12-01T04:19:31.684Z,0
2016-12-01T04:20:12.149Z,0
2016-12-01T04:20:52.630Z,0
2016-12-01T04:21:33.100Z,0
2016-12-01T04:22:13.617Z,0
2016-12-01T04:22:54.081Z,0
2016-12-01T04:23:34.565Z,0
2016-12-01T04:24:15.103Z,0
2016-12-01T04:24:55.581Z,0
2016-12-01T04:25:36.067Z,0
2016-12-01T04:26:16.598Z,0
2016-12-01T04:26:57.105Z,0
2016-12-01T04:27:37.593Z,0
2016-12-01T04:28:18.088Z,0
2016-12-01T04:28:58.559Z,0
2016-12-01T04:29:39.030Z,0
2016-12-01T04:30:19.477Z,0
2016-12-01T04:30:59.975Z,0
2016-12-01T04:31:40.464Z,0
2016-12-01T04:32:20.956Z,0
2016-12-01T04:33:01.441Z,0
2016-12-01T04:33:41.925Z,0
2016-12-01T04:34:22.374Z,0
2016-12-01T04:35:02.871Z,0
2016-12-01T04:35:43.353Z,0
2016-12-01T04:36:23.814Z,0
2016-12-01T04:37:04.315Z,0
2016-12-01T04:37:44.785Z,0
2016-12-01T04:38:25.296Z,0
2016-12-01T04:39:05.780Z,0
2016-12-01T04:39:46.268Z,0
2016-12-01T04:40:26.959Z,0
2016-12-01T04:41:07.487Z,0
2016-12-01T04:41:47.965Z,0
2016-12-01T04:42:28.457Z,0
2016-12-01T04:43:08.932Z,0
2016-12-01T04:43:49.418Z,0
2016-12-01T04:44:29.900Z,0
2016-12-01T04:45:10.380Z,0
2016-12-01T04:45:50.859Z,0
2016-12-01T04:46:31.337Z,0
2016-12-01T04:47:11.818Z,0
2016-12-01T04:47:52.296Z,0
2016-12-01T04:48:32.754Z,0
2016-12-01T04:49:13.210Z,0
2016-12-01T04:49:53.715Z,0
2016-12-01T04:50:34.148Z,0
2016-12-01T04:51:14.628Z,0
2016-12-01T04:51:55.096Z,0
2016-12-01T04:52:35.580Z,0
2016-12-01T04:53:16.027Z,0
2016-12-01T04:53:56.499Z,0
2016-12-01T04:54:37.112Z,0
2016-12-01T04:55:17.589Z,0
2016-12-01T04:55:58.065Z,0
2016-12-01T04:56:38.533Z,0
2016-12-01T04:57:19.030Z,0
2016-12-01T04:57:59.491Z,0
2016-12-01T04:58:40.008Z,0
2016-12-01T04:59:20.501Z,0
2016-12-01T05:00:00.935Z,0
2016-12-01T05:00:41.419Z,0
2016-12-01T05:01:21.850Z,0
2016-12-01T05:02:02.328Z,0
2016-12-01T05:02:42.818Z,0
2016-12-01T05:03:23.303Z,0
2016-12-01T05:04:03.835Z,0
2016-12-01T05:04:44.244Z,0
2016-12-01T05:05:24.749Z,0
2016-12-01T05:06:05.239Z,0
2016-12-01T05:06:45.734Z,0
2016-12-01T05:07:26.184Z,0
2016-12-01T05:08:06.716Z,0
2016-12-01T05:08:47.168Z,0
2016-12-01T05:09:27.642Z,0
2016-12-01T05:10:08.136Z,0
2016-12-01T05:10:48.608Z,0
2016-12-01T05:11:29.068Z,0
2016-12-01T05:12:09.565Z,0
2016-12-01T05:12:50.046Z,0
2016-12-01T05:13:30.527Z,0
2016-12-01T05:14:11.663Z,0
2016-12-01T05:14:52.165Z,0
2016-12-01T05:15:32.680Z,0
2016-12-01T05:16:14.043Z,0
2016-12-01T05:16:55.939Z,0
2016-12-01T05:17:36.432Z,0
2016-12-01T05:18:17.968Z,0
2016-12-01T05:18:58.464Z,0
2016-12-01T05:19:41.229Z,0
2016-12-01T05:20:25.221Z,0
2016-12-01T05:21:10.213Z,0
2016-12-01T05:21:50.720Z,0
2016-12-01T05:22:32.155Z,0
2016-12-01T05:23:14.223Z,0
2016-12-01T05:23:55.670Z,0
2016-12-01T05:24:37.822Z,0
2016-12-01T05:25:22.724Z,0
2016-12-01T05:26:03.208Z,0
2016-12-01T05:26:44.538Z,0
2016-12-01T05:27:26.250Z,0
2016-12-01T05:28:08.226Z,0
2016-12-01T05:28:49.654Z,0
2016-12-01T05:29:30.162Z,0
2016-12-01T05:30:12.450Z,0
2016-12-01T05:30:53.947Z,0
2016-12-01T05:31:35.348Z,0
2016-12-01T05:32:16.638Z,0
2016-12-01T05:32:57.947Z,0
2016-12-01T05:33:39.220Z,0
2016-12-01T05:34:23.215Z,0
2016-12-01T05:35:05.575Z,0
2016-12-01T05:35:46.060Z,0
2016-12-01T05:36:26.562Z,0
2016-12-01T05:37:08.025Z,0
2016-12-01T05:37:48.500Z,0
2016-12-01T05:38:29.085Z,0
2016-12-01T05:39:09.547Z,0
2016-12-01T05:39:50.011Z,0
2016-12-01T05:40:31.448Z,0
2016-12-01T05:41:13.733Z,0
2016-12-01T05:41:54.204Z,0
2016-12-01T05:42:34.784Z,0
2016-12-01T05:43:15.958Z,0
2016-12-01T05:43:56.484Z,0
2016-12-01T05:44:40.372Z,0
2016-12-01T05:45:21.724Z,0
2016-12-01T05:46:03.731Z,0
2016-12-01T05:46:45.045Z,0
2016-12-01T05:47:26.228Z,0
2016-12-01T05:48:08.216Z,0
2016-12-01T05:48:49.453Z,0
2016-12-01T05:49:32.444Z,0
2016-12-01T05:50:12.980Z,0
2016-12-01T05:50:54.435Z,0
2016-12-01T05:51:36.734Z,0
2016-12-01T05:52:18.719Z,0
2016-12-01T05:53:00.808Z,0
2016-12-01T05:53:41.310Z,0
2016-12-01T05:54:24.244Z,0
2016-12-01T05:55:04.729Z,0
2016-12-01T05:55:45.936Z,0
2016-12-01T05:56:27.947Z,0
2016-12-01T05:57:09.236Z,0
2016-12-01T05:57:51.326Z,0
2016-12-01T05:58:32.300Z,0
2016-12-01T05:59:14.233Z,0
2016-12-01T05:59:58.261Z,0
2016-12-01T06:00:38.736Z,0
2016-12-01T06:01:20.725Z,0
2016-12-01T06:02:02.157Z,0
2016-12-01T06:02:46.335Z,0
2016-12-01T06:03:27.188Z,0
2016-12-01T06:04:07.711Z,0
2016-12-01T06:04:48.174Z,0
2016-12-01T06:05:30.320Z,0
2016-12-01T06:06:11.636Z,0
2016-12-01T06:06:52.609Z,0
2016-12-01T06:07:33.135Z,0
2016-12-01T06:08:13.595Z,0
2016-12-01T06:08:54.836Z,0
2016-12-01T06:09:35.416Z,0
2016-12-01T06:10:16.564Z,0
2016-12-01T06:10:57.847Z,0
2016-12-01T06:11:40.871Z,0
2016-12-01T06:12:22.035Z,0
2016-12-01T06:13:03.971Z,0
2016-12-01T06:13:44.441Z,0
2016-12-01T06:14:24.910Z,0
2016-12-01T06:15:05.384Z,0
2016-12-01T06:15:49.241Z,0
2016-12-01T06:16:29.691Z,0
2016-12-01T06:17:10.216Z,0
2016-12-01T06:17:50.722Z,0
2016-12-01T06:18:31.206Z,0
2016-12-01T06:19:11.678Z,0
2016-12-01T06:19:53.114Z,0
2016-12-01T06:20:33.547Z,0
2016-12-01T06:21:14.045Z,0
2016-12-01T06:21:55.227Z,0
2016-12-01T06:22:35.698Z,0
2016-12-01T06:23:17.119Z,0
2016-12-01T06:23:58.125Z,0
2016-12-01T06:24:39.561Z,0
2016-12-01T06:25:20.065Z,0
2016-12-01T06:26:00.556Z,0
2016-12-01T06:26:41.713Z,0
2016-12-01T06:27:22.198Z,0
2016-12-01T06:28:02.745Z,0
2016-12-01T06:28:43.214Z,0
2016-12-01T06:29:24.441Z,0
2016-12-01T06:30:05.816Z,0
2016-12-01T06:30:46.930Z,0
2016-12-01T06:31:27.947Z,0
2016-12-01T06:32:10.711Z,0
2016-12-01T06:32:53.817Z,0
2016-12-01T06:33:34.359Z,0
2016-12-01T06:34:16.628Z,0
2016-12-01T06:35:02.024Z,0
2016-12-01T06:35:43.053Z,0
2016-12-01T06:36:23.549Z,0
2016-12-01T06:37:04.945Z,0
2016-12-01T06:37:46.929Z,0
2016-12-01T06:38:28.107Z,0
2016-12-01T06:39:08.600Z,0
2016-12-01T06:39:49.723Z,0
2016-12-01T06:40:30.272Z,0
2016-12-01T06:41:10.770Z,0
2016-12-01T06:41:52.812Z,0
2016-12-01T06:42:33.959Z,0
2016-12-01T06:43:14.490Z,0
2016-12-01T06:43:56.612Z,0
2016-12-01T06:44:37.092Z,0
2016-12-01T06:45:17.603Z,0
2016-12-01T06:45:58.808Z,0
2016-12-01T06:46:42.726Z,0
2016-12-01T06:47:24.009Z,0
2016-12-01T06:48:05.720Z,0
2016-12-01T06:48:48.061Z,4
2016-12-01T06:49:29.030Z,4
2016-12-01T06:50:10.439Z,4
2016-12-01T06:50:53.241Z,4
2016-12-01T06:51:34.475Z,0
2016-12-01T06:52:15.724Z,4
2016-12-01T06:53:08.025Z,4
2016-12-01T06:53:48.521Z,4
2016-12-01T06:54:30.809Z,8
2016-12-01T06:55:13.721Z,4
2016-12-01T06:55:55.089Z,4
2016-12-01T06:56:35.604Z,8
2016-12-01T06:57:16.819Z,8
2016-12-01T06:57:57.295Z,8
2016-12-01T06:58:38.309Z,8
2016-12-01T06:59:23.241Z,8
2016-12-01T07:00:04.451Z,12
2016-12-01T07:00:47.232Z,8
2016-12-01T07:03:09.187Z,16
2016-12-01T07:03:56.087Z,16
2016-12-01T07:06:27.514Z,20
2016-12-01T07:08:56.131Z,36
2016-12-01T07:09:37.323Z,36
2016-12-01T07:10:17.837Z,36
2016-12-01T07:10:58.323Z,40
2016-12-01T07:11:38.795Z,44
2016-12-01T07:12:19.318Z,44
2016-12-01T07:13:00.394Z,48
2016-12-01T07:13:41.931Z,48
2016-12-01T07:14:22.408Z,52
2016-12-01T07:15:02.896Z,52
2016-12-01T07:15:43.388Z,52
2016-12-01T07:16:23.869Z,60
2016-12-01T07:17:04.365Z,60
2016-12-01T07:17:44.857Z,60
2016-12-01T07:18:25.374Z,64
2016-12-01T07:19:05.898Z,64
2016-12-01T07:19:46.423Z,68
2016-12-01T07:20:26.962Z,72
2016-12-01T07:21:07.442Z,76
2016-12-01T07:21:48.010Z,80
2016-12-01T07:22:28.700Z,84
2016-12-01T07:23:09.229Z,84
2016-12-01T07:23:49.733Z,88
2016-12-01T07:24:30.276Z,96
2016-12-01T07:25:10.783Z,96
2016-12-01T07:25:51.294Z,100
2016-12-01T07:26:31.779Z,104
2016-12-01T07:27:12.294Z,104
2016-12-01T07:27:52.809Z,104
2016-12-01T07:28:33.285Z,108
2016-12-01T07:29:13.735Z,112
2016-12-01T07:29:54.224Z,120
2016-12-01T07:30:34.707Z,128
2016-12-01T07:31:15.239Z,132
2016-12-01T07:31:55.735Z,132
2016-12-01T07:32:36.235Z,140
2016-12-01T07:33:16.746Z,144
2016-12-01T07:33:57.252Z,152
2016-12-01T07:34:37.781Z,152
2016-12-01T07:35:18.293Z,148
2016-12-01T07:35:58.796Z,152
2016-12-01T07:36:39.302Z,156
2016-12-01T07:37:19.797Z,168
2016-12-01T07:38:00.334Z,176
2016-12-01T07:38:40.875Z,180
2016-12-01T07:39:21.389Z,176
2016-12-01T07:40:01.909Z,164
2016-12-01T07:40:42.427Z,152
2016-12-01T07:41:22.955Z,148
2016-12-01T07:42:03.431Z,152
2016-12-01T07:42:43.916Z,148
2016-12-01T07:43:24.416Z,164
2016-12-01T07:44:04.952Z,184
2016-12-01T07:44:46.184Z,212
2016-12-01T07:45:26.666Z,232
2016-12-01T07:46:07.175Z,248
2016-12-01T07:46:47.686Z,264
2016-12-01T07:47:28.194Z,272
2016-12-01T07:48:08.700Z,272
2016-12-01T07:48:49.213Z,260
2016-12-01T07:49:29.721Z,256
2016-12-01T07:51:42.947Z,244
2016-12-01T07:52:23.475Z,260
2016-12-01T07:53:03.972Z,264
2016-12-01T07:53:44.541Z,284
2016-12-01T07:54:25.055Z,284
2016-12-01T07:55:05.536Z,288
2016-12-01T07:55:46.956Z,264
2016-12-01T07:56:27.462Z,248
2016-12-01T07:57:07.951Z,232
2016-12-01T07:57:48.451Z,228
2016-12-01T07:58:28.985Z,224
2016-12-01T07:59:09.463Z,212
2016-12-01T07:59:50.085Z,248
2016-12-01T08:00:30.521Z,288
2016-12-01T08:01:11.068Z,344
2016-12-01T08:01:51.562Z,392
2016-12-01T08:02:32.036Z,420
2016-12-01T08:03:12.578Z,464
2016-12-01T08:03:53.033Z,508
2016-12-01T08:04:35.549Z,548
2016-12-01T08:05:16.093Z,572
2016-12-01T08:05:56.573Z,600
2016-12-01T08:06:41.990Z,632
2016-12-01T08:07:33.900Z,672
2016-12-01T08:08:23.071Z,708
2016-12-01T08:09:04.584Z,728
2016-12-01T08:09:45.775Z,744
2016-12-01T08:10:26.332Z,752
2016-12-01T08:11:07.864Z,768
2016-12-01T08:11:53.984Z,788
2016-12-01T08:12:39.798Z,812
2016-12-01T08:13:27.458Z,840
2016-12-01T08:14:08.905Z,864
2016-12-01T08:15:00.832Z,896
2016-12-01T08:15:51.694Z,924
2016-12-01T08:16:37.521Z,948
2016-12-01T08:17:18.682Z,972
2016-12-01T08:18:02.193Z,996
2016-12-01T08:18:43.559Z,1028
2016-12-01T08:19:26.838Z,1056
2016-12-01T08:20:07.765Z,1088
2016-12-01T08:20:48.473Z,1116
2016-12-01T08:21:29.185Z,1152
2016-12-01T08:22:11.076Z,1180
2016-12-01T08:22:53.038Z,1192
2016-12-01T08:25:11.569Z,1192
2016-12-01T08:25:52.227Z,1204
2016-12-01T08:26:34.597Z,1192
2016-12-01T08:27:15.500Z,1168
2016-12-01T08:27:57.359Z,1168
2016-12-01T08:28:38.209Z,1208
2016-12-01T08:29:19.425Z,1236
2016-12-01T08:30:01.539Z,1248
2016-12-01T08:30:42.012Z,1248
2016-12-01T08:31:24.386Z,1232
2016-12-01T08:32:04.876Z,1224
2016-12-01T08:32:45.474Z,1236
2016-12-01T08:33:26.468Z,1280
2016-12-01T08:34:06.956Z,1328
2016-12-01T08:34:50.304Z,1344
2016-12-01T08:35:32.459Z,1348
2016-12-01T08:36:18.333Z,1308
2016-12-01T08:37:02.162Z,1220
2016-12-01T08:37:42.660Z,1152
2016-12-01T08:38:23.128Z,1164
2016-12-01T08:39:04.572Z,1128
2016-12-01T08:39:45.782Z,1068
2016-12-01T08:40:26.306Z,1024
2016-12-01T08:41:07.004Z,972
2016-12-01T08:41:47.562Z,980
2016-12-01T08:42:28.887Z,1000
2016-12-01T08:43:09.412Z,1004
2016-12-01T08:43:49.979Z,1016
2016-12-01T08:44:30.491Z,1032
2016-12-01T08:45:11.028Z,1080
2016-12-01T08:45:51.623Z,1120
2016-12-01T08:46:32.132Z,1196
2016-12-01T08:47:12.663Z,1252
2016-12-01T08:47:54.386Z,1276
2016-12-01T08:48:35.049Z,1276
2016-12-01T08:49:16.856Z,1268
2016-12-01T08:49:57.370Z,1256
2016-12-01T08:50:37.885Z,1240
2016-12-01T08:51:18.462Z,1260
2016-12-01T08:51:59.656Z,1244
2016-12-01T08:52:41.032Z,1236
2016-12-01T08:53:21.519Z,1240
2016-12-01T08:54:02.043Z,1236
2016-12-01T08:54:42.577Z,1256
2016-12-01T08:55:23.058Z,1328
2016-12-01T08:56:04.650Z,1380
2016-12-01T08:56:45.180Z,1420
2016-12-01T08:57:28.594Z,1416
2016-12-01T08:58:09.131Z,1420
2016-12-01T08:58:54.487Z,1480
2016-12-01T08:59:35.840Z,1516
2016-12-01T09:00:16.931Z,1516
2016-12-01T09:00:57.653Z,1520
2016-12-01T09:01:39.084Z,1556
2016-12-01T09:02:19.572Z,1612
2016-12-01T09:03:00.818Z,1744
2016-12-01T09:03:41.304Z,1884
2016-12-01T09:04:21.796Z,2032
2016-12-01T09:05:02.304Z,2120
2016-12-01T09:05:42.826Z,2084
2016-12-01T09:06:23.375Z,2016
2016-12-01T09:07:04.433Z,1996
2016-12-01T09:07:45.011Z,1976
2016-12-01T09:08:25.507Z,1904
2016-12-01T09:09:06.914Z,1796
2016-12-01T09:09:48.300Z,1716
2016-12-01T09:10:28.787Z,1676
2016-12-01T09:11:09.283Z,1704
2016-12-01T09:11:49.750Z,1780
2016-12-01T09:12:30.248Z,1848
2016-12-01T09:13:11.871Z,1908
2016-12-01T09:13:52.331Z,1932
2016-12-01T09:14:32.922Z,1920
2016-12-01T09:15:13.480Z,1872
2016-12-01T09:15:53.932Z,1796
2016-12-01T09:16:34.457Z,1704
2016-12-01T09:17:15.579Z,1708
2016-12-01T09:17:57.906Z,1836
2016-12-01T09:18:40.793Z,1892
2016-12-01T09:19:22.216Z,1872
2016-12-01T09:20:03.487Z,1908
2016-12-01T09:20:46.099Z,2080
2016-12-01T09:21:28.204Z,2196
2016-12-01T09:22:08.767Z,2280
2016-12-01T09:22:49.249Z,2356
2016-12-01T09:23:29.756Z,2364
2016-12-01T09:24:10.355Z,2368
2016-12-01T09:24:52.617Z,2384
2016-12-01T09:25:33.141Z,2476
2016-12-01T09:26:13.594Z,2556
2016-12-01T09:26:54.133Z,2604
2016-12-01T09:27:36.260Z,2496
2016-12-01T09:28:16.792Z,2500
2016-12-01T09:28:57.298Z,2500
2016-12-01T09:29:40.539Z,2488
2016-12-01T09:30:20.635Z,2532
2016-12-01T09:31:01.146Z,2532
2016-12-01T09:31:42.705Z,2776
2016-12-01T09:32:23.867Z,2848
2016-12-01T09:35:00.383Z,3080
2016-12-01T09:35:46.532Z,3148
2016-12-01T09:36:35.127Z,3240
2016-12-01T09:37:23.496Z,3432
2016-12-01T09:38:12.409Z,3528
2016-12-01T09:39:00.862Z,3928
2016-12-01T09:39:49.426Z,4116
2016-12-01T09:40:38.030Z,4136
2016-12-01T09:41:21.084Z,4048
2016-12-01T09:42:02.104Z,4128
2016-12-01T09:42:43.531Z,4204
2016-12-01T09:43:24.543Z,4316
2016-12-01T09:44:06.643Z,4336
2016-12-01T09:44:47.783Z,4356
2016-12-01T09:45:29.084Z,4540
2016-12-01T09:46:10.335Z,4596
2016-12-01T09:46:50.790Z,4636
2016-12-01T09:47:32.241Z,4640
2016-12-01T09:48:14.352Z,4660
2016-12-01T09:48:55.567Z,4672
2016-12-01T09:49:36.931Z,4648
2016-12-01T09:50:17.411Z,4524
2016-12-01T09:50:57.964Z,4256
2016-12-01T09:51:38.539Z,3880
2016-12-01T09:52:19.809Z,3452
2016-12-01T09:53:00.430Z,3196
2016-12-01T09:53:41.697Z,3172
2016-12-01T09:54:22.253Z,3184
2016-12-01T09:55:02.872Z,3284
2016-12-01T09:55:44.805Z,3392
2016-12-01T09:56:25.399Z,3708
2016-12-01T09:57:05.876Z,4072
2016-12-01T09:57:46.392Z,4176
2016-12-01T09:58:26.907Z,4108
2016-12-01T09:59:07.401Z,4116
2016-12-01T09:59:47.981Z,4276
2016-12-01T10:00:28.451Z,4420